Time;durP1;ratioP1;P1;durP2;ratioP2;P2;SDS_P1;SDS_P2;PMS_P1;PMS_P2;Temp;Humidity;BMP_temperature;BMP_pressure;BME280_temperature;BME280_humidity;BME280_pressure;Samples;Min_cycle;Max_cycle;Signal;HPM_P1;HPM_P2
2022/04/15 00:01:22;;;;;;;16.48;8.70;;;8.90;99.90;;;;;;5084927;28;20048;-68
2022/04/15 00:03:48;;;;;;;12.05;8.13;;;8.90;99.90;;;;;;5085297;28;20044;-68
2022/04/15 00:06:14;;;;;;;15.65;8.45;;;8.90;99.90;;;;;;5083936;28;20039;-68
2022/04/15 00:08:40;;;;;;;13.55;7.72;;;8.80;99.90;;;;;;5084411;28;20081;-68
2022/04/15 00:11:06;;;;;;;11.45;7.82;;;8.80;99.90;;;;;;5084408;28;20044;-68
2022/04/15 00:13:33;;;;;;;12.65;7.90;;;8.70;99.90;;;;;;5085504;28;20407;-68
2022/04/15 00:15:59;;;;;;;12.65;7.70;;;8.70;99.90;;;;;;5084135;28;20200;-68
2022/04/15 00:18:26;;;;;;;15.27;7.93;;;8.70;99.90;;;;;;5081305;28;20348;-68
2022/04/15 00:20:52;;;;;;;11.50;7.35;;;8.70;99.90;;;;;;5088737;28;20598;-68
2022/04/15 00:23:21;;;;;;;14.48;7.68;;;8.70;99.90;;;;;;5087403;28;20085;-68
2022/04/15 00:25:46;;;;;;;12.90;7.55;;;8.70;99.90;;;;;;5087148;28;20055;-68
2022/04/15 00:28:12;;;;;;;13.65;7.60;;;8.70;99.90;;;;;;5087891;28;20032;-67
2022/04/15 00:30:37;;;;;;;14.00;7.75;;;8.60;99.90;;;;;;5087053;28;20085;-68
2022/04/15 00:33:03;;;;;;;12.77;7.25;;;8.60;99.90;;;;;;5089551;28;20140;-67
2022/04/15 00:35:28;;;;;;;14.38;8.40;;;8.60;99.90;;;;;;5084886;28;20079;-68
2022/04/15 00:37:54;;;;;;;12.88;8.32;;;8.60;99.90;;;;;;5084775;28;20048;-69
2022/04/15 00:40:20;;;;;;;14.75;8.32;;;8.60;99.90;;;;;;5087843;28;20055;-67
2022/04/15 00:42:46;;;;;;;17.77;8.00;;;8.60;99.90;;;;;;5087815;28;20036;-67
2022/04/15 00:45:11;;;;;;;13.82;8.20;;;8.50;99.90;;;;;;5085920;28;20047;-68
2022/04/15 00:47:37;;;;;;;15.18;8.15;;;8.50;99.90;;;;;;5088231;28;20085;-67
2022/04/15 00:50:03;;;;;;;11.13;7.15;;;8.40;99.90;;;;;;5086387;28;20036;-67
2022/04/15 00:52:33;;;;;;;12.52;7.50;;;8.40;99.90;;;;;;5089834;28;20063;-68
2022/04/15 00:55:02;;;;;;;14.10;7.28;;;8.40;99.90;;;;;;5088006;28;20066;-68
2022/04/15 00:57:30;;;;;;;13.07;7.68;;;8.40;99.90;;;;;;5069478;28;20051;-67
2022/04/15 01:00:00;;;;;;;11.68;7.18;;;8.30;99.90;;;;;;5084979;28;20129;-69
2022/04/15 01:02:27;;;;;;;13.02;7.70;;;8.20;99.90;;;;;;5087992;28;20048;-68
2022/04/15 01:04:55;;;;;;;11.15;7.00;;;8.20;99.90;;;;;;5087493;28;20040;-68
2022/04/15 01:07:25;;;;;;;12.70;6.53;;;8.20;99.90;;;;;;5086137;28;20081;-69
2022/04/15 01:09:52;;;;;;;11.55;6.50;;;8.20;99.90;;;;;;5082060;28;20048;-68
2022/04/15 01:12:20;;;;;;;10.07;6.15;;;8.30;99.90;;;;;;5086885;28;20036;-69
2022/04/15 01:14:47;;;;;;;12.43;6.93;;;8.30;99.90;;;;;;5087102;28;20036;-69
2022/04/15 01:17:13;;;;;;;10.15;6.45;;;8.20;99.90;;;;;;5085766;28;20051;-69
2022/04/15 01:19:38;;;;;;;12.77;6.60;;;8.20;99.90;;;;;;5085126;28;20044;-69
2022/04/15 01:22:08;;;;;;;13.13;7.72;;;8.20;99.90;;;;;;5082402;28;20045;-69
2022/04/15 01:24:38;;;;;;;12.40;7.13;;;8.10;99.90;;;;;;5079765;28;20365;-69
2022/04/15 01:27:04;;;;;;;14.30;7.40;;;8.10;99.90;;;;;;5081930;28;20460;-69
2022/04/15 01:29:36;;;;;;;13.90;7.38;;;8.10;99.90;;;;;;5081620;28;20343;-69
2022/04/15 01:32:03;;;;;;;13.07;7.15;;;8.00;99.90;;;;;;5079933;28;20044;-69
2022/04/15 01:34:29;;;;;;;14.25;7.07;;;8.00;99.90;;;;;;5084751;28;20091;-69
2022/04/15 01:36:55;;;;;;;13.23;7.03;;;8.00;99.90;;;;;;5065857;28;20506;-69
2022/04/15 01:39:21;;;;;;;13.15;6.55;;;8.00;99.90;;;;;;5083647;28;20466;-69
2022/04/15 01:41:46;;;;;;;11.15;6.93;;;7.90;99.90;;;;;;5077929;28;20054;-69
2022/04/15 01:44:15;;;;;;;13.65;7.32;;;7.90;99.90;;;;;;5084265;28;20029;-69
2022/04/15 01:46:42;;;;;;;12.20;7.15;;;7.90;99.90;;;;;;5084996;28;20127;-69
2022/04/15 01:49:08;;;;;;;13.57;7.07;;;7.90;99.90;;;;;;5082142;28;20040;-69
2022/04/15 01:51:35;;;;;;;12.48;7.68;;;7.80;99.90;;;;;;5079317;28;20052;-69
2022/04/15 01:54:01;;;;;;;11.65;6.90;;;7.80;99.90;;;;;;5078516;28;20044;-69
2022/04/15 01:56:26;;;;;;;11.23;6.78;;;7.90;99.90;;;;;;5084058;28;20059;-69
2022/04/15 01:58:52;;;;;;;12.30;6.78;;;7.80;99.90;;;;;;5084103;28;20421;-69
2022/04/15 02:01:18;;;;;;;10.23;6.72;;;7.80;99.90;;;;;;5083083;28;20043;-69
2022/04/15 02:03:43;;;;;;;15.02;7.10;;;7.80;99.90;;;;;;5080434;28;20040;-68
2022/04/15 02:06:09;;;;;;;12.00;6.57;;;7.80;99.90;;;;;;5082565;28;20051;-69
2022/04/15 02:08:34;;;;;;;10.48;6.50;;;7.80;99.90;;;;;;5085146;28;20045;-69
2022/04/15 02:11:00;;;;;;;10.73;6.60;;;7.80;99.90;;;;;;5082347;28;20115;-69
2022/04/15 02:13:25;;;;;;;10.45;6.70;;;7.80;99.90;;;;;;5082385;28;20043;-69
2022/04/15 02:15:51;;;;;;;10.55;6.40;;;7.80;99.90;;;;;;5084569;28;20036;-69
2022/04/15 02:18:17;;;;;;;13.88;6.80;;;7.80;99.90;;;;;;5078268;28;20495;-69
2022/04/15 02:20:42;;;;;;;14.13;7.35;;;7.80;99.90;;;;;;5084405;28;20032;-69
2022/04/15 02:23:08;;;;;;;11.25;6.75;;;7.80;99.90;;;;;;5081729;28;20463;-69
2022/04/15 02:25:34;;;;;;;10.23;6.80;;;7.90;99.90;;;;;;5077791;28;20072;-68
2022/04/15 02:28:00;;;;;;;13.18;6.60;;;7.80;99.90;;;;;;5081951;28;20046;-69
2022/04/15 02:30:25;;;;;;;11.48;7.03;;;7.80;99.90;;;;;;5082569;28;20040;-68
2022/04/15 02:32:51;;;;;;;10.98;6.78;;;7.80;99.90;;;;;;5080959;28;20048;-68
2022/04/15 02:35:16;;;;;;;13.95;6.72;;;7.80;99.90;;;;;;5082690;28;20048;-69
2022/04/15 02:37:42;;;;;;;14.70;7.75;;;7.90;99.90;;;;;;5081627;28;20040;-69
2022/04/15 02:40:08;;;;;;;12.93;7.20;;;7.90;99.90;;;;;;5079497;28;20044;-68
2022/04/15 02:42:34;;;;;;;13.35;7.90;;;7.80;99.90;;;;;;5084557;28;20044;-69
2022/04/15 02:45:01;;;;;;;11.00;7.55;;;7.80;99.90;;;;;;5081493;28;20040;-69
2022/04/15 02:47:29;;;;;;;14.07;7.95;;;7.80;99.90;;;;;;5084889;28;20126;-69
2022/04/15 02:49:55;;;;;;;13.90;7.85;;;7.80;99.90;;;;;;5079524;28;20066;-69
2022/04/15 02:52:21;;;;;;;11.85;7.45;;;7.80;99.90;;;;;;5080493;28;20044;-69
2022/04/15 02:54:47;;;;;;;12.90;7.88;;;7.80;99.90;;;;;;5084947;28;20043;-69
2022/04/15 02:57:12;;;;;;;11.82;7.85;;;7.80;99.90;;;;;;5084309;28;20368;-69
2022/04/15 02:59:38;;;;;;;12.75;8.13;;;7.80;99.90;;;;;;5089330;28;20125;-69
2022/04/15 03:02:04;;;;;;;12.82;8.43;;;7.80;99.90;;;;;;5086184;28;20036;-69
2022/04/15 03:04:29;;;;;;;14.43;8.38;;;7.80;99.90;;;;;;5085440;28;20097;-69
2022/04/15 03:06:55;;;;;;;18.17;9.23;;;7.80;99.90;;;;;;5086695;28;20147;-69
2022/04/15 03:09:25;;;;;;;12.77;8.60;;;7.80;99.90;;;;;;5087556;28;20123;-69
2022/04/15 03:11:51;;;;;;;16.98;8.88;;;7.70;99.90;;;;;;5086487;28;20123;-69
2022/04/15 03:14:17;;;;;;;15.13;9.68;;;7.80;99.90;;;;;;5087961;28;20279;-68
2022/04/15 03:16:43;;;;;;;15.27;9.30;;;7.80;99.90;;;;;;5084253;28;20067;-68
2022/04/15 03:19:08;;;;;;;15.32;9.35;;;7.70;99.90;;;;;;5086145;28;20036;-69
2022/04/15 03:21:35;;;;;;;12.23;9.13;;;7.70;99.90;;;;;;5086509;28;20051;-69
2022/04/15 03:24:01;;;;;;;15.68;8.65;;;7.80;99.90;;;;;;5087776;28;20487;-69
2022/04/15 03:26:27;;;;;;;13.23;8.07;;;7.80;99.90;;;;;;5087453;28;20036;-69
2022/04/15 03:28:53;;;;;;;14.45;8.77;;;7.80;99.90;;;;;;5086014;28;20472;-69
2022/04/15 03:31:18;;;;;;;14.93;8.40;;;7.80;99.90;;;;;;5087255;28;20044;-68
2022/04/15 03:33:44;;;;;;;13.43;7.80;;;7.80;99.90;;;;;;5084909;28;20123;-68
2022/04/15 03:36:10;;;;;;;10.88;8.18;;;7.70;99.90;;;;;;5088219;28;20152;-68
2022/04/15 03:38:36;;;;;;;11.68;8.57;;;7.70;99.90;;;;;;5086283;28;20451;-69
2022/04/15 03:41:01;;;;;;;12.98;8.95;;;7.70;99.90;;;;;;5084888;28;20044;-69
2022/04/15 03:43:27;;;;;;;11.32;7.63;;;7.70;99.90;;;;;;5078908;28;20047;-69
2022/04/15 03:45:52;;;;;;;12.60;8.38;;;7.70;99.90;;;;;;5082064;28;20056;-68
2022/04/15 03:48:18;;;;;;;15.40;8.85;;;7.80;99.90;;;;;;5089515;28;20040;-69
2022/04/15 03:50:43;;;;;;;13.27;8.13;;;7.80;99.90;;;;;;5081126;28;20060;-69
2022/04/15 03:53:09;;;;;;;13.93;8.40;;;7.80;99.90;;;;;;5079544;28;20105;-68
2022/04/15 03:55:35;;;;;;;13.52;7.63;;;7.80;99.90;;;;;;5085272;28;20044;-68
2022/04/15 03:58:00;;;;;;;10.35;7.35;;;7.80;99.90;;;;;;5093914;28;20379;-69
2022/04/15 04:00:26;;;;;;;12.05;7.65;;;7.80;99.90;;;;;;5090224;28;20036;-68
2022/04/15 04:02:53;;;;;;;13.23;7.53;;;7.80;99.90;;;;;;5085012;28;20067;-69
2022/04/15 04:05:20;;;;;;;12.32;7.88;;;7.80;99.90;;;;;;5084958;28;20028;-69
2022/04/15 04:07:45;;;;;;;12.35;7.88;;;7.90;99.90;;;;;;5069838;28;20089;-69
2022/04/15 04:10:12;;;;;;;12.77;7.60;;;7.90;99.90;;;;;;5073279;28;20412;-69
2022/04/15 04:12:39;;;;;;;12.88;7.45;;;7.90;99.90;;;;;;5079152;28;20154;-69
2022/04/15 04:15:06;;;;;;;12.75;8.18;;;7.90;99.90;;;;;;5079428;28;20120;-69
2022/04/15 04:17:32;;;;;;;12.02;8.18;;;7.90;99.90;;;;;;5080896;28;20442;-69
2022/04/15 04:19:58;;;;;;;11.50;7.20;;;7.90;99.90;;;;;;5078083;28;20063;-69
2022/04/15 04:22:33;;;;;;;13.45;7.30;;;7.90;99.90;;;;;;5083541;28;20048;-69
2022/04/15 04:24:58;;;;;;;13.07;8.15;;;8.00;99.90;;;;;;5082204;28;20040;-69
2022/04/15 04:27:24;;;;;;;12.07;7.65;;;8.00;99.90;;;;;;5081880;28;20047;-69
2022/04/15 04:29:50;;;;;;;10.65;7.30;;;8.00;99.90;;;;;;5083923;28;20118;-68
2022/04/15 04:32:17;;;;;;;12.73;7.47;;;8.00;99.90;;;;;;5080037;28;20148;-69
2022/04/15 04:34:42;;;;;;;13.25;7.13;;;8.00;99.90;;;;;;5082519;28;20048;-69
2022/04/15 04:37:08;;;;;;;11.70;7.10;;;7.90;99.90;;;;;;5081307;28;20042;-69
2022/04/15 04:39:33;;;;;;;11.65;7.65;;;7.90;99.90;;;;;;5080929;28;20130;-69
2022/04/15 04:42:00;;;;;;;13.50;7.60;;;7.90;99.90;;;;;;5083568;28;20203;-69
2022/04/15 04:44:27;;;;;;;10.70;7.00;;;7.90;99.90;;;;;;5084228;28;20124;-69
2022/04/15 04:46:54;;;;;;;10.80;7.18;;;8.00;99.90;;;;;;5083307;28;20783;-69
2022/04/15 04:49:19;;;;;;;10.90;7.70;;;8.00;99.90;;;;;;5061268;28;20059;-69
2022/04/15 04:51:45;;;;;;;12.48;7.68;;;8.00;99.90;;;;;;5081401;28;20044;-69
2022/04/15 04:54:11;;;;;;;12.35;7.95;;;8.00;99.90;;;;;;5088264;28;20129;-69
2022/04/15 04:56:36;;;;;;;9.60;6.80;;;8.00;99.90;;;;;;5086297;28;20092;-69
2022/04/15 04:59:02;;;;;;;12.40;7.63;;;7.90;99.90;;;;;;5083879;28;20050;-69
2022/04/15 05:01:27;;;;;;;12.80;7.90;;;8.00;99.90;;;;;;5088694;28;20138;-68
2022/04/15 05:03:53;;;;;;;15.52;8.02;;;7.90;99.90;;;;;;5086920;28;20036;-69
2022/04/15 05:06:19;;;;;;;16.08;7.07;;;8.00;99.90;;;;;;5086352;28;20032;-69
2022/04/15 05:08:44;;;;;;;15.32;7.03;;;8.00;99.90;;;;;;5085838;28;20040;-68
2022/04/15 05:11:10;;;;;;;13.20;8.60;;;8.10;99.90;;;;;;5083474;28;20059;-69
2022/04/15 05:13:35;;;;;;;14.15;7.95;;;8.00;99.90;;;;;;5087825;28;20109;-69
2022/04/15 05:16:01;;;;;;;12.00;7.80;;;8.10;99.90;;;;;;5085931;28;20040;-69
2022/04/15 05:18:26;;;;;;;12.63;8.00;;;8.10;99.90;;;;;;5082960;28;20054;-68
2022/04/15 05:20:52;;;;;;;12.52;7.70;;;8.10;99.90;;;;;;5088071;28;20060;-69
2022/04/15 05:23:17;;;;;;;11.77;7.53;;;8.10;99.90;;;;;;5087048;28;20116;-69
2022/04/15 05:25:43;;;;;;;12.98;7.88;;;8.10;99.90;;;;;;5086358;28;20122;-69
2022/04/15 05:28:08;;;;;;;11.40;7.18;;;8.10;99.90;;;;;;5083128;28;20047;-69
2022/04/15 05:30:34;;;;;;;11.50;7.45;;;8.20;99.90;;;;;;5085912;28;20201;-68
2022/04/15 05:32:59;;;;;;;12.98;7.47;;;8.20;99.90;;;;;;5083725;28;20121;-68
2022/04/15 05:35:25;;;;;;;13.07;7.90;;;8.20;99.90;;;;;;5085859;28;20067;-69
2022/04/15 05:37:50;;;;;;;12.05;8.15;;;8.20;99.90;;;;;;5086647;28;20052;-68
2022/04/15 05:40:16;;;;;;;12.02;7.50;;;8.20;99.90;;;;;;5084770;28;20120;-68
2022/04/15 05:42:42;;;;;;;11.48;6.93;;;8.20;99.90;;;;;;5085733;28;20108;-68
2022/04/15 05:45:08;;;;;;;9.98;7.03;;;8.30;99.90;;;;;;5080710;28;20056;-68
2022/04/15 05:47:34;;;;;;;12.93;7.50;;;8.30;99.90;;;;;;5080906;28;20039;-69
2022/04/15 05:49:59;;;;;;;11.30;7.65;;;8.30;99.90;;;;;;5086381;28;20400;-69
2022/04/15 05:52:25;;;;;;;11.65;7.22;;;8.30;99.90;;;;;;5081138;28;20390;-68
2022/04/15 05:54:50;;;;;;;11.68;7.88;;;8.40;99.90;;;;;;5085125;28;20060;-69
2022/04/15 05:57:18;;;;;;;11.90;7.47;;;8.40;99.90;;;;;;5080662;28;20052;-69
2022/04/15 05:59:43;;;;;;;10.98;7.00;;;8.40;99.90;;;;;;5088454;28;20048;-69
2022/04/15 06:02:09;;;;;;;15.40;8.32;;;8.40;99.90;;;;;;5079933;28;20219;-69
2022/04/15 06:04:34;;;;;;;12.70;7.53;;;8.40;99.90;;;;;;5085308;28;20044;-69
2022/04/15 06:07:00;;;;;;;13.07;7.93;;;8.50;99.90;;;;;;5084670;28;20158;-69
2022/04/15 06:09:25;;;;;;;10.82;7.30;;;8.50;99.90;;;;;;5084207;28;20052;-69
2022/04/15 06:11:53;;;;;;;11.30;7.85;;;8.50;99.90;;;;;;5086625;28;20051;-69
2022/04/15 06:14:22;;;;;;;12.02;7.72;;;8.50;99.90;;;;;;5082001;28;20388;-69
2022/04/15 06:16:49;;;;;;;12.48;8.18;;;8.60;99.90;;;;;;5079750;28;20083;-69
2022/04/15 06:19:14;;;;;;;12.18;8.60;;;8.60;99.90;;;;;;5085742;28;20174;-69
2022/04/15 06:21:40;;;;;;;13.80;8.40;;;8.60;99.90;;;;;;5083756;28;20111;-69
2022/04/15 06:24:08;;;;;;;12.57;8.30;;;8.60;99.90;;;;;;5086329;28;20108;-68
2022/04/15 06:26:34;;;;;;;13.27;8.93;;;8.50;99.90;;;;;;5087295;28;20051;-69
2022/04/15 06:29:00;;;;;;;11.18;8.55;;;8.60;99.90;;;;;;5081932;28;20044;-69
2022/04/15 06:31:26;;;;;;;13.77;9.10;;;8.60;99.90;;;;;;5083658;28;20047;-70
2022/04/15 06:33:52;;;;;;;15.82;8.38;;;8.70;99.90;;;;;;5079120;28;20056;-69
2022/04/15 06:36:21;;;;;;;12.70;8.77;;;8.80;99.90;;;;;;5084709;28;20032;-68
2022/04/15 06:38:47;;;;;;;13.68;8.82;;;8.80;99.90;;;;;;5083611;28;20048;-68
2022/04/15 06:41:12;;;;;;;10.88;7.03;;;8.80;99.90;;;;;;5089549;28;20036;-68
2022/04/15 06:43:39;;;;;;;10.52;7.47;;;8.80;99.90;;;;;;5086832;28;20112;-69
2022/04/15 06:46:05;;;;;;;10.27;6.88;;;8.90;99.90;;;;;;5067480;28;20050;-71
2022/04/15 06:48:31;;;;;;;10.52;6.60;;;9.00;99.90;;;;;;5083354;28;20125;-69
2022/04/15 06:50:57;;;;;;;8.45;6.00;;;9.00;99.90;;;;;;5088683;28;20040;-69
2022/04/15 06:53:25;;;;;;;8.07;5.60;;;9.00;99.90;;;;;;5088584;28;20071;-69
2022/04/15 06:55:51;;;;;;;9.07;6.03;;;8.90;99.90;;;;;;5082707;28;20124;-69
2022/04/15 06:58:17;;;;;;;8.20;5.93;;;8.90;99.90;;;;;;5077635;28;20119;-69
2022/04/15 07:00:43;;;;;;;9.45;6.50;;;9.00;99.90;;;;;;5086295;28;20067;-69
2022/04/15 07:03:09;;;;;;;9.20;6.60;;;9.10;99.90;;;;;;5086104;28;20047;-69
2022/04/15 07:05:35;;;;;;;7.78;5.95;;;9.10;99.90;;;;;;5083689;28;21031;-69
2022/04/15 07:08:00;;;;;;;8.13;5.57;;;9.20;99.90;;;;;;5087993;28;20067;-69
2022/04/15 07:10:26;;;;;;;8.55;5.70;;;9.10;99.90;;;;;;5084744;28;20076;-69
2022/04/15 07:12:51;;;;;;;8.23;4.80;;;9.20;99.90;;;;;;5086455;28;20353;-69
2022/04/15 07:15:17;;;;;;;6.85;4.18;;;9.30;99.90;;;;;;5084440;28;20101;-69
2022/04/15 07:17:43;;;;;;;6.32;3.70;;;9.30;99.90;;;;;;5084464;28;20048;-69
2022/04/15 07:20:09;;;;;;;6.03;3.80;;;9.40;99.90;;;;;;5085938;28;20364;-69
2022/04/15 07:22:34;;;;;;;6.13;3.00;;;9.40;99.90;;;;;;5086046;28;20053;-69
2022/04/15 07:25:00;;;;;;;5.10;3.33;;;9.40;99.90;;;;;;5087119;28;20525;-69
2022/04/15 07:27:26;;;;;;;5.75;3.60;;;9.30;99.90;;;;;;5084381;28;20106;-69
2022/04/15 07:29:53;;;;;;;7.90;4.40;;;9.30;99.90;;;;;;5084082;28;20050;-69
2022/04/15 07:32:25;;;;;;;8.95;4.88;;;9.30;99.90;;;;;;5084805;28;20119;-69
2022/04/15 07:34:52;;;;;;;8.30;4.28;;;9.30;99.90;;;;;;5085057;28;20327;-69
2022/04/15 07:37:18;;;;;;;7.65;5.10;;;9.20;99.90;;;;;;5087372;28;20476;-69
2022/04/15 07:39:44;;;;;;;7.35;5.05;;;9.20;99.90;;;;;;5084913;28;20089;-69
2022/04/15 07:42:11;;;;;;;7.28;4.28;;;9.10;99.90;;;;;;5090601;28;20047;-69
2022/04/15 07:44:38;;;;;;;7.15;5.35;;;9.20;99.90;;;;;;5091320;28;20044;-69
2022/04/15 07:47:04;;;;;;;8.18;4.78;;;9.20;99.90;;;;;;5089912;28;20051;-69
2022/04/15 07:49:29;;;;;;;8.13;4.90;;;9.20;99.90;;;;;;5088521;28;20055;-69
2022/04/15 07:51:55;;;;;;;6.32;4.20;;;9.20;99.90;;;;;;5088754;28;20044;-69
2022/04/15 07:54:20;;;;;;;5.97;3.90;;;9.20;99.90;;;;;;5088417;28;20570;-69
2022/04/15 07:56:46;;;;;;;5.88;3.50;;;9.10;99.90;;;;;;5083458;28;20044;-69
2022/04/15 07:59:12;;;;;;;6.40;3.75;;;9.10;99.90;;;;;;5089023;28;20136;-69
2022/04/15 08:01:38;;;;;;;6.07;4.03;;;9.10;99.90;;;;;;5085140;28;20101;-69
2022/04/15 08:04:05;;;;;;;6.47;3.58;;;9.10;99.90;;;;;;5090206;28;20403;-69
2022/04/15 08:06:31;;;;;;;7.15;3.90;;;9.10;99.90;;;;;;5092381;28;20054;-69
2022/04/15 08:08:58;;;;;;;6.35;3.88;;;9.10;99.90;;;;;;5090807;28;20036;-69
2022/04/15 08:11:25;;;;;;;6.38;3.85;;;9.10;99.90;;;;;;5089231;28;20051;-69
2022/04/15 08:13:51;;;;;;;5.43;3.40;;;9.10;99.90;;;;;;5087033;28;20154;-70
2022/04/15 08:16:17;;;;;;;7.18;3.80;;;9.10;99.90;;;;;;5088854;28;20091;-70
2022/04/15 08:18:42;;;;;;;5.88;3.50;;;9.10;99.90;;;;;;5087956;28;20033;-69
2022/04/15 08:21:08;;;;;;;6.13;3.42;;;9.10;99.90;;;;;;5087187;28;20090;-69
2022/04/15 08:23:34;;;;;;;7.28;3.55;;;9.00;99.90;;;;;;5092838;28;20055;-70
2022/04/15 08:25:59;;;;;;;6.65;3.72;;;9.00;99.90;;;;;;5090033;28;20048;-70
2022/04/15 08:28:25;;;;;;;9.05;4.18;;;9.00;99.90;;;;;;5091274;28;20048;-69
2022/04/15 08:30:51;;;;;;;6.57;4.22;;;9.00;99.90;;;;;;5089400;28;20114;-70
2022/04/15 08:33:17;;;;;;;6.40;3.92;;;9.00;99.90;;;;;;5091454;28;20047;-70
2022/04/15 08:35:42;;;;;;;7.60;4.32;;;8.90;99.90;;;;;;5089511;28;20040;-70
2022/04/15 08:38:08;;;;;;;6.95;3.78;;;8.90;99.90;;;;;;5091981;28;20055;-69
2022/04/15 08:40:37;;;;;;;6.78;3.95;;;8.90;99.90;;;;;;5084721;28;20064;-69
2022/04/15 08:43:05;;;;;;;6.75;4.10;;;8.90;99.90;;;;;;5089387;28;20086;-69
2022/04/15 08:45:30;;;;;;;6.95;3.83;;;8.90;99.90;;;;;;5091078;28;20047;-70
2022/04/15 08:48:00;;;;;;;7.53;4.90;;;8.90;99.90;;;;;;5091497;28;20040;-70
2022/04/15 08:50:30;;;;;;;7.78;5.07;;;9.00;99.90;;;;;;5088980;28;20042;-70
2022/04/15 08:52:58;;;;;;;8.98;5.53;;;9.00;99.90;;;;;;5090686;28;20147;-70
2022/04/15 08:55:25;;;;;;;9.07;5.88;;;9.00;99.90;;;;;;5088618;28;20113;-70
2022/04/15 08:57:52;;;;;;;10.07;5.78;;;9.10;99.90;;;;;;5091846;28;20396;-70
2022/04/15 09:00:21;;;;;;;11.38;6.75;;;9.10;99.90;;;;;;5090843;28;20036;-69
2022/04/15 09:02:49;;;;;;;11.68;6.88;;;9.20;99.90;;;;;;5089509;28;20047;-70
2022/04/15 09:05:19;;;;;;;11.02;6.70;;;9.20;99.90;;;;;;5088740;28;20127;-69
2022/04/15 09:07:45;;;;;;;12.00;7.57;;;9.30;99.90;;;;;;5069814;28;20052;-68
2022/04/15 09:10:12;;;;;;;10.30;6.70;;;9.30;99.90;;;;;;5083202;28;20039;-68
2022/04/15 09:12:40;;;;;;;10.35;6.70;;;9.40;99.90;;;;;;5088090;28;20042;-68
2022/04/15 09:15:06;;;;;;;15.88;8.15;;;9.50;99.90;;;;;;5090749;28;20096;-69
2022/04/15 09:17:32;;;;;;;16.92;8.23;;;9.50;99.90;;;;;;5086911;28;20044;-69
2022/04/15 09:19:58;;;;;;;10.57;6.70;;;9.60;99.90;;;;;;5080702;28;20063;-69
2022/04/15 09:22:24;;;;;;;11.65;7.70;;;9.60;99.90;;;;;;5076952;28;20040;-69
2022/04/15 09:24:51;;;;;;;13.20;7.95;;;9.70;99.90;;;;;;5091096;28;20353;-69
2022/04/15 09:27:18;;;;;;;14.38;8.30;;;9.60;99.90;;;;;;5089630;28;20048;-69
2022/04/15 09:29:44;;;;;;;13.77;8.13;;;9.60;99.90;;;;;;5089525;28;20519;-69
2022/04/15 09:32:14;;;;;;;11.57;7.70;;;9.70;99.90;;;;;;5088841;28;20067;-69
2022/04/15 09:34:55;;;;;;;11.43;7.18;;;9.70;99.90;;;;;;5087045;28;20455;-69
2022/04/15 09:37:23;;;;;;;12.77;7.57;;;9.70;99.90;;;;;;5090591;28;20109;-68
2022/04/15 09:40:15;;;;;;;14.20;7.70;;;9.80;99.90;;;;;;5088760;28;20040;-68
2022/04/15 09:42:45;;;;;;;11.57;7.88;;;9.80;99.90;;;;;;5089051;28;20053;-68
2022/04/15 09:45:22;;;;;;;11.80;7.95;;;9.80;99.90;;;;;;5071696;28;20051;-67
2022/04/15 09:47:52;;;;;;;12.38;7.85;;;9.90;99.90;;;;;;5078049;28;20032;-68
2022/04/15 09:50:34;;;;;;;13.82;8.05;;;10.00;99.90;;;;;;5086304;28;20062;-68
2022/04/15 09:53:20;;;;;;;13.30;7.95;;;10.00;99.90;;;;;;5089255;28;20055;-68
2022/04/15 09:55:51;;;;;;;14.80;8.80;;;10.10;99.90;;;;;;5089530;28;20135;-67
2022/04/15 09:58:20;;;;;;;12.52;7.68;;;10.10;99.90;;;;;;5089059;28;20040;-68
2022/04/15 10:00:51;;;;;;;13.63;8.18;;;10.30;99.90;;;;;;5083810;28;20048;-68
2022/04/15 10:03:22;;;;;;;12.93;8.52;;;10.30;99.90;;;;;;5085470;28;20044;-67
2022/04/15 10:05:49;;;;;;;13.25;8.40;;;10.30;99.90;;;;;;5090351;28;20047;-68
2022/04/15 10:08:16;;;;;;;14.13;8.35;;;10.40;99.90;;;;;;5087729;28;20111;-68
2022/04/15 10:10:42;;;;;;;12.50;7.90;;;10.40;99.90;;;;;;5088076;28;20143;-67
2022/04/15 10:13:08;;;;;;;14.98;7.35;;;10.50;99.90;;;;;;5089243;28;20445;-68
2022/04/15 10:15:37;;;;;;;13.55;8.00;;;10.50;99.90;;;;;;5088388;28;20068;-68
2022/04/15 10:18:03;;;;;;;12.77;7.90;;;10.50;99.90;;;;;;5087362;28;20170;-68
2022/04/15 10:20:31;;;;;;;14.43;7.45;;;10.60;99.90;;;;;;5089701;28;20040;-68
2022/04/15 10:23:09;;;;;;;14.80;8.88;;;10.60;99.90;;;;;;5089877;28;20070;-68
2022/04/15 10:25:36;;;;;;;14.70;8.60;;;10.70;99.90;;;;;;5088111;28;20511;-68
2022/04/15 10:28:10;;;;;;;12.98;7.85;;;10.70;99.90;;;;;;5087084;28;20036;-68
2022/04/15 10:30:37;;;;;;;11.23;7.72;;;10.80;99.90;;;;;;5089378;28;20079;-68
2022/04/15 10:33:03;;;;;;;12.98;8.48;;;10.80;99.90;;;;;;5087839;28;20046;-67
2022/04/15 10:35:31;;;;;;;12.75;7.35;;;11.00;99.90;;;;;;5089032;28;20517;-68
2022/04/15 10:38:02;;;;;;;13.32;7.78;;;11.10;99.90;;;;;;5088229;28;20036;-68
2022/04/15 10:40:33;;;;;;;13.45;7.75;;;11.10;99.90;;;;;;5088265;28;20048;-68
2022/04/15 10:43:17;;;;;;;13.10;8.20;;;11.20;99.90;;;;;;5088848;28;20044;-67
2022/04/15 10:45:43;;;;;;;11.90;7.28;;;11.30;99.90;;;;;;5088794;28;20075;-67
2022/04/15 10:48:08;;;;;;;13.45;7.50;;;11.50;99.90;;;;;;5087449;28;20071;-68
2022/04/15 10:50:35;;;;;;;13.93;7.68;;;11.50;99.90;;;;;;5088336;28;20135;-68
2022/04/15 10:53:19;;;;;;;11.07;6.95;;;11.60;99.90;;;;;;5088185;28;20040;-68
2022/04/15 10:55:48;;;;;;;11.73;6.40;;;11.70;99.90;;;;;;5087653;28;20048;-68
2022/04/15 10:58:15;;;;;;;11.55;6.45;;;11.80;99.90;;;;;;5070002;28;20049;-68
2022/04/15 11:03:32;;;;;;;10.63;5.88;;;12.00;99.90;;;;;;5086508;28;20044;-68
2022/04/15 11:06:05;;;;;;;10.57;5.65;;;12.10;99.90;;;;;;5088266;28;20093;-67
2022/04/15 11:08:47;;;;;;;11.63;5.68;;;12.10;99.90;;;;;;5087932;28;20451;-68
2022/04/15 11:11:13;;;;;;;9.70;5.80;;;12.10;99.90;;;;;;5086913;28;20436;-68
2022/04/15 11:13:39;;;;;;;10.45;5.43;;;12.20;99.90;;;;;;5087945;28;20068;-69
2022/04/15 11:16:10;;;;;;;11.35;5.65;;;12.30;99.90;;;;;;5087247;28;20044;-68
2022/04/15 11:18:56;;;;;;;9.75;5.75;;;12.20;99.90;;;;;;5090300;28;20753;-68
2022/04/15 11:21:29;;;;;;;12.85;6.43;;;12.30;99.90;;;;;;5089390;28;20066;-68
2022/04/15 11:23:57;;;;;;;14.60;6.55;;;12.30;99.90;;;;;;5078750;28;20193;-68
2022/04/15 11:26:25;;;;;;;12.35;6.63;;;12.30;99.90;;;;;;5083408;28;20152;-70
2022/04/15 11:28:52;;;;;;;11.02;5.97;;;12.40;99.90;;;;;;5076389;28;20040;-67
2022/04/15 11:31:39;;;;;;;9.98;5.88;;;12.50;99.90;;;;;;5083725;28;20127;-68
2022/04/15 11:34:16;;;;;;;11.98;6.07;;;12.60;99.90;;;;;;5082007;28;20075;-71
2022/04/15 11:36:45;;;;;;;10.27;5.32;;;12.70;99.90;;;;;;5088309;28;20129;-68
2022/04/15 11:39:13;;;;;;;8.60;5.40;;;12.90;99.90;;;;;;5084266;28;20036;-68
2022/04/15 11:41:47;;;;;;;11.68;5.45;;;13.10;99.90;;;;;;5079603;28;20064;-69
2022/04/15 11:44:14;;;;;;;10.43;5.00;;;13.20;99.90;;;;;;5090573;28;20207;-69
2022/04/15 11:46:43;;;;;;;11.10;5.25;;;13.40;99.90;;;;;;5085147;28;20356;-69
2022/04/15 11:49:18;;;;;;;8.98;4.95;;;13.40;99.90;;;;;;5088459;28;20044;-68
2022/04/15 11:51:51;;;;;;;9.20;5.10;;;13.50;99.90;;;;;;5091051;28;20364;-68
2022/04/15 11:54:24;;;;;;;8.30;4.68;;;13.60;99.90;;;;;;5085911;28;20064;-68
2022/04/15 11:56:57;;;;;;;8.23;5.22;;;13.70;99.90;;;;;;5089029;28;20040;-68
2022/04/15 11:59:24;;;;;;;10.07;5.60;;;13.80;99.90;;;;;;5088586;28;20122;-68
2022/04/15 12:01:50;;;;;;;10.77;5.43;;;13.70;99.90;;;;;;5091163;28;20661;-67
2022/04/15 12:04:16;;;;;;;13.10;5.20;;;13.70;99.90;;;;;;5091240;28;20036;-68
2022/04/15 12:06:42;;;;;;;7.32;4.57;;;13.50;99.90;;;;;;5090980;28;20044;-68
2022/04/15 12:09:10;;;;;;;9.93;4.75;;;13.40;99.90;;;;;;5089964;28;20364;-68
2022/04/15 12:11:37;;;;;;;10.07;4.80;;;13.30;99.90;;;;;;5090116;28;20050;-68
2022/04/15 12:14:04;;;;;;;10.50;4.93;;;13.30;99.90;;;;;;5090951;28;20070;-68
2022/04/15 12:16:31;;;;;;;8.38;4.60;;;13.30;99.90;;;;;;5091486;28;20051;-68
2022/04/15 12:18:59;;;;;;;8.13;4.70;;;13.30;99.90;;;;;;5091102;28;20090;-68
2022/04/15 12:21:26;;;;;;;8.40;4.57;;;13.30;99.90;;;;;;5089947;28;20044;-68
2022/04/15 12:24:05;;;;;;;7.43;4.43;;;13.40;99.90;;;;;;5090464;28;20048;-68
2022/04/15 12:26:41;;;;;;;8.00;4.53;;;13.40;99.90;;;;;;5070795;28;20049;-68
2022/04/15 12:31:50;;;;;;;8.95;4.20;;;13.40;99.90;;;;;;5084094;28;20043;-68
2022/04/15 12:34:16;;;;;;;9.48;4.75;;;13.40;99.90;;;;;;5087568;28;20163;-68
2022/04/15 12:36:44;;;;;;;9.85;4.88;;;13.30;99.90;;;;;;5088777;28;20079;-69
2022/04/15 12:39:09;;;;;;;9.73;5.10;;;13.30;99.90;;;;;;5091227;28;20036;-68
2022/04/15 12:41:49;;;;;;;7.45;4.40;;;13.30;99.90;;;;;;5090337;28;20390;-69
2022/04/15 12:44:32;;;;;;;9.32;4.90;;;13.10;99.90;;;;;;5088050;28;20387;-68
2022/04/15 12:47:00;;;;;;;10.30;5.00;;;13.20;99.90;;;;;;5089098;28;20044;-69
2022/04/15 12:49:33;;;;;;;9.32;4.45;;;13.20;99.90;;;;;;5073192;28;20090;-68
2022/04/15 12:52:16;;;;;;;8.40;4.30;;;13.20;99.90;;;;;;5090789;28;20050;-69
2022/04/15 12:54:55;;;;;;;7.22;4.43;;;13.20;99.90;;;;;;5089626;28;20105;-69